sensor_id;sensor_type;location;lat;lon;timestamp;P1;durP1;ratioP1;P2;durP2;ratioP2
14903;SDS011;7543;53.148;8.234;2023-12-28T00:00:46;2.50;;;1.37;;
14903;SDS011;7543;53.148;8.234;2023-12-28T00:03:15;1.80;;;1.23;;
14903;SDS011;7543;53.148;8.234;2023-12-28T00:05:43;1.93;;;1.20;;
14903;SDS011;7543;53.148;8.234;2023-12-28T00:08:13;2.00;;;1.60;;
14903;SDS011;7543;53.148;8.234;2023-12-28T00:10:41;2.00;;;1.30;;
14903;SDS011;7543;53.148;8.234;2023-12-28T00:13:09;2.37;;;1.30;;
14903;SDS011;7543;53.148;8.234;2023-12-28T00:15:38;2.37;;;1.40;;
14903;SDS011;7543;53.148;8.234;2023-12-28T00:18:06;6.07;;;1.80;;
14903;SDS011;7543;53.148;8.234;2023-12-28T00:20:34;1.83;;;1.30;;
14903;SDS011;7543;53.148;8.234;2023-12-28T00:23:03;3.40;;;1.30;;
14903;SDS011;7543;53.148;8.234;2023-12-28T00:25:33;2.27;;;1.47;;
14903;SDS011;7543;53.148;8.234;2023-12-28T00:28:02;2.47;;;1.43;;
14903;SDS011;7543;53.148;8.234;2023-12-28T00:30:30;3.00;;;1.37;;
14903;SDS011;7543;53.148;8.234;2023-12-28T00:33:00;2.67;;;1.50;;
14903;SDS011;7543;53.148;8.234;2023-12-28T00:35:29;2.67;;;1.50;;
14903;SDS011;7543;53.148;8.234;2023-12-28T00:37:57;2.07;;;1.40;;
14903;SDS011;7543;53.148;8.234;2023-12-28T00:40:25;1.37;;;1.17;;
14903;SDS011;7543;53.148;8.234;2023-12-28T00:42:55;3.10;;;1.47;;
14903;SDS011;7543;53.148;8.234;2023-12-28T00:45:24;3.07;;;1.40;;
14903;SDS011;7543;53.148;8.234;2023-12-28T00:47:53;1.87;;;1.47;;
14903;SDS011;7543;53.148;8.234;2023-12-28T00:50:23;1.90;;;1.37;;
14903;SDS011;7543;53.148;8.234;2023-12-28T00:52:54;4.37;;;1.50;;
14903;SDS011;7543;53.148;8.234;2023-12-28T00:55:22;2.87;;;1.50;;
14903;SDS011;7543;53.148;8.234;2023-12-28T00:57:50;3.23;;;1.50;;
14903;SDS011;7543;53.148;8.234;2023-12-28T01:00:20;2.30;;;1.30;;
14903;SDS011;7543;53.148;8.234;2023-12-28T01:02:49;2.07;;;1.20;;
14903;SDS011;7543;53.148;8.234;2023-12-28T01:05:18;2.63;;;1.40;;
14903;SDS011;7543;53.148;8.234;2023-12-28T01:07:47;2.67;;;1.40;;
14903;SDS011;7543;53.148;8.234;2023-12-28T01:10:16;4.80;;;1.57;;
14903;SDS011;7543;53.148;8.234;2023-12-28T01:12:44;2.23;;;1.40;;
14903;SDS011;7543;53.148;8.234;2023-12-28T01:15:13;1.50;;;1.20;;
14903;SDS011;7543;53.148;8.234;2023-12-28T01:17:43;3.93;;;1.80;;
14903;SDS011;7543;53.148;8.234;2023-12-28T01:20:11;1.57;;;1.33;;
14903;SDS011;7543;53.148;8.234;2023-12-28T01:22:40;3.73;;;1.53;;
14903;SDS011;7543;53.148;8.234;2023-12-28T01:25:08;2.37;;;1.53;;
14903;SDS011;7543;53.148;8.234;2023-12-28T01:27:36;2.90;;;1.50;;
14903;SDS011;7543;53.148;8.234;2023-12-28T01:30:05;4.57;;;1.40;;
14903;SDS011;7543;53.148;8.234;2023-12-28T01:32:35;4.70;;;1.50;;
14903;SDS011;7543;53.148;8.234;2023-12-28T01:35:05;1.70;;;1.47;;
14903;SDS011;7543;53.148;8.234;2023-12-28T01:37:34;2.43;;;1.37;;
14903;SDS011;7543;53.148;8.234;2023-12-28T01:40:03;3.10;;;1.70;;
14903;SDS011;7543;53.148;8.234;2023-12-28T01:42:32;2.60;;;1.40;;
14903;SDS011;7543;53.148;8.234;2023-12-28T01:45:02;5.10;;;1.60;;
14903;SDS011;7543;53.148;8.234;2023-12-28T01:47:31;4.07;;;1.63;;
14903;SDS011;7543;53.148;8.234;2023-12-28T01:49:59;1.93;;;1.50;;
14903;SDS011;7543;53.148;8.234;2023-12-28T01:52:29;3.37;;;1.67;;
14903;SDS011;7543;53.148;8.234;2023-12-28T01:54:57;2.90;;;1.80;;
14903;SDS011;7543;53.148;8.234;2023-12-28T01:57:26;3.77;;;1.60;;
14903;SDS011;7543;53.148;8.234;2023-12-28T01:59:55;1.63;;;1.30;;
14903;SDS011;7543;53.148;8.234;2023-12-28T02:02:23;2.10;;;1.40;;
14903;SDS011;7543;53.148;8.234;2023-12-28T02:04:52;2.53;;;1.70;;
14903;SDS011;7543;53.148;8.234;2023-12-28T02:07:20;2.90;;;1.60;;
14903;SDS011;7543;53.148;8.234;2023-12-28T02:09:50;3.07;;;1.50;;
14903;SDS011;7543;53.148;8.234;2023-12-28T02:12:19;2.17;;;1.43;;
14903;SDS011;7543;53.148;8.234;2023-12-28T02:14:48;3.43;;;1.83;;
14903;SDS011;7543;53.148;8.234;2023-12-28T02:17:19;3.43;;;1.63;;
14903;SDS011;7543;53.148;8.234;2023-12-28T02:19:50;3.40;;;1.77;;
14903;SDS011;7543;53.148;8.234;2023-12-28T02:22:21;3.57;;;1.50;;
14903;SDS011;7543;53.148;8.234;2023-12-28T02:24:58;2.27;;;1.57;;
14903;SDS011;7543;53.148;8.234;2023-12-28T02:27:31;3.90;;;1.47;;
14903;SDS011;7543;53.148;8.234;2023-12-28T02:30:00;3.37;;;1.57;;
14903;SDS011;7543;53.148;8.234;2023-12-28T02:32:32;2.93;;;1.57;;
14903;SDS011;7543;53.148;8.234;2023-12-28T02:37:51;5.63;;;1.60;;
14903;SDS011;7543;53.148;8.234;2023-12-28T02:40:23;2.50;;;1.40;;
14903;SDS011;7543;53.148;8.234;2023-12-28T02:42:52;7.30;;;1.80;;
14903;SDS011;7543;53.148;8.234;2023-12-28T02:45:21;1.93;;;1.50;;
14903;SDS011;7543;53.148;8.234;2023-12-28T02:47:49;1.87;;;1.50;;
14903;SDS011;7543;53.148;8.234;2023-12-28T02:50:18;2.13;;;1.70;;
14903;SDS011;7543;53.148;8.234;2023-12-28T02:52:46;2.87;;;1.90;;
14903;SDS011;7543;53.148;8.234;2023-12-28T02:55:15;5.40;;;1.57;;
14903;SDS011;7543;53.148;8.234;2023-12-28T02:57:45;3.73;;;1.90;;
14903;SDS011;7543;53.148;8.234;2023-12-28T03:00:13;1.90;;;1.50;;
14903;SDS011;7543;53.148;8.234;2023-12-28T03:02:42;4.60;;;1.77;;
14903;SDS011;7543;53.148;8.234;2023-12-28T03:05:11;3.47;;;1.80;;
14903;SDS011;7543;53.148;8.234;2023-12-28T03:07:39;2.43;;;1.60;;
14903;SDS011;7543;53.148;8.234;2023-12-28T03:10:09;3.27;;;1.50;;
14903;SDS011;7543;53.148;8.234;2023-12-28T03:12:38;2.47;;;1.60;;
14903;SDS011;7543;53.148;8.234;2023-12-28T03:15:08;4.60;;;1.70;;
14903;SDS011;7543;53.148;8.234;2023-12-28T03:17:37;4.07;;;1.70;;
14903;SDS011;7543;53.148;8.234;2023-12-28T03:20:05;6.67;;;1.90;;
14903;SDS011;7543;53.148;8.234;2023-12-28T03:22:34;3.00;;;1.80;;
14903;SDS011;7543;53.148;8.234;2023-12-28T03:25:03;2.90;;;1.70;;
14903;SDS011;7543;53.148;8.234;2023-12-28T03:27:32;4.03;;;2.43;;
14903;SDS011;7543;53.148;8.234;2023-12-28T03:30:00;4.93;;;1.70;;
14903;SDS011;7543;53.148;8.234;2023-12-28T03:32:30;3.40;;;1.53;;
14903;SDS011;7543;53.148;8.234;2023-12-28T03:34:58;4.17;;;1.83;;
14903;SDS011;7543;53.148;8.234;2023-12-28T03:37:27;5.40;;;1.87;;
14903;SDS011;7543;53.148;8.234;2023-12-28T03:39:55;4.53;;;1.83;;
14903;SDS011;7543;53.148;8.234;2023-12-28T03:42:24;2.60;;;1.50;;
14903;SDS011;7543;53.148;8.234;2023-12-28T03:44:52;3.40;;;1.43;;
14903;SDS011;7543;53.148;8.234;2023-12-28T03:47:21;3.00;;;1.90;;
14903;SDS011;7543;53.148;8.234;2023-12-28T03:49:51;4.13;;;2.00;;
14903;SDS011;7543;53.148;8.234;2023-12-28T03:52:19;2.53;;;1.50;;
14903;SDS011;7543;53.148;8.234;2023-12-28T03:54:48;4.57;;;1.70;;
14903;SDS011;7543;53.148;8.234;2023-12-28T03:57:16;4.67;;;1.80;;
14903;SDS011;7543;53.148;8.234;2023-12-28T03:59:44;3.43;;;1.70;;
14903;SDS011;7543;53.148;8.234;2023-12-28T04:02:14;5.77;;;1.93;;
14903;SDS011;7543;53.148;8.234;2023-12-28T04:04:43;3.23;;;1.93;;
14903;SDS011;7543;53.148;8.234;2023-12-28T04:07:12;6.80;;;2.17;;
14903;SDS011;7543;53.148;8.234;2023-12-28T04:09:42;4.97;;;1.63;;
14903;SDS011;7543;53.148;8.234;2023-12-28T04:12:11;3.50;;;1.80;;
14903;SDS011;7543;53.148;8.234;2023-12-28T04:14:39;2.80;;;1.70;;
14903;SDS011;7543;53.148;8.234;2023-12-28T04:17:07;5.13;;;1.70;;
14903;SDS011;7543;53.148;8.234;2023-12-28T04:19:36;3.23;;;1.73;;
14903;SDS011;7543;53.148;8.234;2023-12-28T04:22:04;3.03;;;1.77;;
14903;SDS011;7543;53.148;8.234;2023-12-28T04:24:34;2.83;;;1.53;;
14903;SDS011;7543;53.148;8.234;2023-12-28T04:27:03;3.00;;;1.70;;
14903;SDS011;7543;53.148;8.234;2023-12-28T04:29:31;5.37;;;2.00;;
14903;SDS011;7543;53.148;8.234;2023-12-28T04:32:00;3.00;;;1.60;;
14903;SDS011;7543;53.148;8.234;2023-12-28T04:34:28;5.07;;;1.50;;
14903;SDS011;7543;53.148;8.234;2023-12-28T04:36:57;4.60;;;1.87;;
14903;SDS011;7543;53.148;8.234;2023-12-28T04:39:25;5.47;;;1.60;;
14903;SDS011;7543;53.148;8.234;2023-12-28T04:41:58;3.20;;;1.57;;
14903;SDS011;7543;53.148;8.234;2023-12-28T04:44:27;3.57;;;1.70;;
14903;SDS011;7543;53.148;8.234;2023-12-28T04:46:55;7.33;;;1.60;;
14903;SDS011;7543;53.148;8.234;2023-12-28T04:49:23;4.10;;;1.93;;
14903;SDS011;7543;53.148;8.234;2023-12-28T04:51:52;1.90;;;1.30;;
14903;SDS011;7543;53.148;8.234;2023-12-28T04:54:20;3.10;;;1.57;;
14903;SDS011;7543;53.148;8.234;2023-12-28T04:56:48;3.00;;;1.83;;
14903;SDS011;7543;53.148;8.234;2023-12-28T04:59:18;2.53;;;1.70;;
14903;SDS011;7543;53.148;8.234;2023-12-28T05:01:46;4.13;;;1.60;;
14903;SDS011;7543;53.148;8.234;2023-12-28T05:04:18;2.70;;;1.63;;
14903;SDS011;7543;53.148;8.234;2023-12-28T05:06:47;4.93;;;1.77;;
14903;SDS011;7543;53.148;8.234;2023-12-28T05:09:15;2.87;;;1.33;;
14903;SDS011;7543;53.148;8.234;2023-12-28T05:11:43;3.03;;;1.50;;
14903;SDS011;7543;53.148;8.234;2023-12-28T05:14:12;4.13;;;1.60;;
14903;SDS011;7543;53.148;8.234;2023-12-28T05:16:41;6.10;;;1.57;;
14903;SDS011;7543;53.148;8.234;2023-12-28T05:19:10;6.73;;;2.00;;
14903;SDS011;7543;53.148;8.234;2023-12-28T05:21:38;4.80;;;1.60;;
14903;SDS011;7543;53.148;8.234;2023-12-28T05:24:06;2.03;;;1.23;;
14903;SDS011;7543;53.148;8.234;2023-12-28T05:26:35;2.70;;;1.53;;
14903;SDS011;7543;53.148;8.234;2023-12-28T05:29:03;5.60;;;1.80;;
14903;SDS011;7543;53.148;8.234;2023-12-28T05:31:31;4.27;;;1.87;;
14903;SDS011;7543;53.148;8.234;2023-12-28T05:34:01;3.93;;;1.60;;
14903;SDS011;7543;53.148;8.234;2023-12-28T05:36:30;2.37;;;1.40;;
14903;SDS011;7543;53.148;8.234;2023-12-28T05:38:58;3.33;;;1.43;;
14903;SDS011;7543;53.148;8.234;2023-12-28T05:41:26;6.67;;;1.57;;
14903;SDS011;7543;53.148;8.234;2023-12-28T05:43:55;7.97;;;1.53;;
14903;SDS011;7543;53.148;8.234;2023-12-28T05:46:23;2.73;;;1.33;;
14903;SDS011;7543;53.148;8.234;2023-12-28T05:48:51;3.13;;;1.30;;
14903;SDS011;7543;53.148;8.234;2023-12-28T05:51:21;3.37;;;1.40;;
14903;SDS011;7543;53.148;8.234;2023-12-28T05:53:49;2.17;;;1.40;;
14903;SDS011;7543;53.148;8.234;2023-12-28T05:56:18;4.90;;;1.50;;
14903;SDS011;7543;53.148;8.234;2023-12-28T05:58:46;7.87;;;1.70;;
14903;SDS011;7543;53.148;8.234;2023-12-28T06:01:14;5.57;;;1.73;;
14903;SDS011;7543;53.148;8.234;2023-12-28T06:03:43;7.10;;;1.70;;
14903;SDS011;7543;53.148;8.234;2023-12-28T06:06:12;3.97;;;1.47;;
14903;SDS011;7543;53.148;8.234;2023-12-28T06:08:41;3.73;;;1.50;;
14903;SDS011;7543;53.148;8.234;2023-12-28T06:11:10;5.67;;;1.70;;
14903;SDS011;7543;53.148;8.234;2023-12-28T06:13:38;5.87;;;1.80;;
14903;SDS011;7543;53.148;8.234;2023-12-28T06:16:06;4.27;;;1.50;;
14903;SDS011;7543;53.148;8.234;2023-12-28T06:18:34;4.83;;;1.60;;
14903;SDS011;7543;53.148;8.234;2023-12-28T06:21:03;7.13;;;1.50;;
14903;SDS011;7543;53.148;8.234;2023-12-28T06:23:32;5.20;;;1.33;;
14903;SDS011;7543;53.148;8.234;2023-12-28T06:26:05;3.67;;;1.50;;
14903;SDS011;7543;53.148;8.234;2023-12-28T06:28:33;6.80;;;1.30;;
14903;SDS011;7543;53.148;8.234;2023-12-28T06:31:02;4.33;;;1.60;;
14903;SDS011;7543;53.148;8.234;2023-12-28T06:33:31;3.67;;;1.77;;
14903;SDS011;7543;53.148;8.234;2023-12-28T06:36:04;7.63;;;1.60;;
14903;SDS011;7543;53.148;8.234;2023-12-28T06:38:33;4.93;;;1.30;;
14903;SDS011;7543;53.148;8.234;2023-12-28T06:41:01;2.33;;;1.30;;
14903;SDS011;7543;53.148;8.234;2023-12-28T06:43:31;6.17;;;1.47;;
14903;SDS011;7543;53.148;8.234;2023-12-28T06:46:00;3.30;;;1.30;;
14903;SDS011;7543;53.148;8.234;2023-12-28T06:48:28;4.57;;;1.70;;
14903;SDS011;7543;53.148;8.234;2023-12-28T06:50:56;5.90;;;1.43;;
14903;SDS011;7543;53.148;8.234;2023-12-28T06:53:24;2.40;;;1.47;;
14903;SDS011;7543;53.148;8.234;2023-12-28T06:55:53;3.60;;;1.30;;
14903;SDS011;7543;53.148;8.234;2023-12-28T06:58:21;4.17;;;1.80;;
14903;SDS011;7543;53.148;8.234;2023-12-28T07:00:51;6.43;;;1.50;;
14903;SDS011;7543;53.148;8.234;2023-12-28T07:03:19;6.63;;;1.83;;
14903;SDS011;7543;53.148;8.234;2023-12-28T07:05:47;5.67;;;1.57;;
14903;SDS011;7543;53.148;8.234;2023-12-28T07:08:16;5.50;;;1.63;;
14903;SDS011;7543;53.148;8.234;2023-12-28T07:10:44;4.20;;;2.03;;
14903;SDS011;7543;53.148;8.234;2023-12-28T07:13:12;4.53;;;1.70;;
14903;SDS011;7543;53.148;8.234;2023-12-28T07:15:41;3.63;;;1.40;;
14903;SDS011;7543;53.148;8.234;2023-12-28T07:18:10;5.00;;;1.60;;
14903;SDS011;7543;53.148;8.234;2023-12-28T07:20:39;5.60;;;1.83;;
14903;SDS011;7543;53.148;8.234;2023-12-28T07:23:07;6.63;;;1.50;;
14903;SDS011;7543;53.148;8.234;2023-12-28T07:25:36;3.80;;;1.50;;
14903;SDS011;7543;53.148;8.234;2023-12-28T07:28:05;4.93;;;2.13;;
14903;SDS011;7543;53.148;8.234;2023-12-28T07:30:33;3.07;;;1.57;;
14903;SDS011;7543;53.148;8.234;2023-12-28T07:33:02;7.57;;;1.50;;
14903;SDS011;7543;53.148;8.234;2023-12-28T07:35:32;5.03;;;1.63;;
14903;SDS011;7543;53.148;8.234;2023-12-28T07:38:00;5.00;;;2.03;;
14903;SDS011;7543;53.148;8.234;2023-12-28T07:40:29;6.67;;;1.70;;
14903;SDS011;7543;53.148;8.234;2023-12-28T07:42:57;6.57;;;1.40;;
14903;SDS011;7543;53.148;8.234;2023-12-28T07:45:26;6.47;;;1.50;;
14903;SDS011;7543;53.148;8.234;2023-12-28T07:47:54;4.43;;;1.37;;
14903;SDS011;7543;53.148;8.234;2023-12-28T07:50:23;3.63;;;1.33;;
14903;SDS011;7543;53.148;8.234;2023-12-28T07:52:52;4.70;;;1.30;;
14903;SDS011;7543;53.148;8.234;2023-12-28T07:55:21;2.40;;;1.33;;
14903;SDS011;7543;53.148;8.234;2023-12-28T07:57:49;5.47;;;1.70;;
14903;SDS011;7543;53.148;8.234;2023-12-28T08:00:18;4.10;;;1.57;;
14903;SDS011;7543;53.148;8.234;2023-12-28T08:02:46;4.30;;;1.53;;
14903;SDS011;7543;53.148;8.234;2023-12-28T08:05:15;6.00;;;1.97;;
14903;SDS011;7543;53.148;8.234;2023-12-28T08:07:43;9.83;;;1.97;;
14903;SDS011;7543;53.148;8.234;2023-12-28T08:10:13;1.53;;;0.97;;
14903;SDS011;7543;53.148;8.234;2023-12-28T08:12:41;4.80;;;1.53;;
14903;SDS011;7543;53.148;8.234;2023-12-28T08:15:09;4.23;;;1.70;;
14903;SDS011;7543;53.148;8.234;2023-12-28T08:17:38;7.53;;;1.87;;
14903;SDS011;7543;53.148;8.234;2023-12-28T08:20:25;4.53;;;1.10;;
14903;SDS011;7543;53.148;8.234;2023-12-28T08:22:53;7.87;;;1.60;;
14903;SDS011;7543;53.148;8.234;2023-12-28T08:25:23;7.80;;;2.00;;
14903;SDS011;7543;53.148;8.234;2023-12-28T08:27:51;7.17;;;1.53;;
14903;SDS011;7543;53.148;8.234;2023-12-28T08:30:20;4.07;;;1.43;;
14903;SDS011;7543;53.148;8.234;2023-12-28T08:32:48;4.50;;;1.53;;
14903;SDS011;7543;53.148;8.234;2023-12-28T08:35:16;5.93;;;1.43;;
14903;SDS011;7543;53.148;8.234;2023-12-28T08:37:45;6.77;;;1.57;;
14903;SDS011;7543;53.148;8.234;2023-12-28T08:40:13;9.17;;;1.43;;
14903;SDS011;7543;53.148;8.234;2023-12-28T08:42:43;9.13;;;1.97;;
14903;SDS011;7543;53.148;8.234;2023-12-28T08:45:12;3.30;;;1.50;;
14903;SDS011;7543;53.148;8.234;2023-12-28T08:47:40;6.40;;;1.60;;
14903;SDS011;7543;53.148;8.234;2023-12-28T08:50:09;5.87;;;1.60;;
14903;SDS011;7543;53.148;8.234;2023-12-28T08:52:37;3.07;;;1.40;;
14903;SDS011;7543;53.148;8.234;2023-12-28T08:55:05;4.37;;;1.40;;
14903;SDS011;7543;53.148;8.234;2023-12-28T08:57:34;5.77;;;1.50;;
14903;SDS011;7543;53.148;8.234;2023-12-28T09:00:05;9.13;;;1.60;;
14903;SDS011;7543;53.148;8.234;2023-12-28T09:02:34;6.03;;;1.47;;
14903;SDS011;7543;53.148;8.234;2023-12-28T09:05:03;6.00;;;1.70;;
14903;SDS011;7543;53.148;8.234;2023-12-28T09:07:32;5.13;;;1.73;;
14903;SDS011;7543;53.148;8.234;2023-12-28T09:10:02;4.47;;;1.40;;
14903;SDS011;7543;53.148;8.234;2023-12-28T09:12:31;5.57;;;1.43;;
14903;SDS011;7543;53.148;8.234;2023-12-28T09:15:00;9.00;;;1.90;;
14903;SDS011;7543;53.148;8.234;2023-12-28T09:17:29;9.63;;;1.70;;
14903;SDS011;7543;53.148;8.234;2023-12-28T09:19:58;10.60;;;1.63;;
14903;SDS011;7543;53.148;8.234;2023-12-28T09:22:28;5.73;;;1.73;;
14903;SDS011;7543;53.148;8.234;2023-12-28T09:24:56;7.77;;;1.60;;
14903;SDS011;7543;53.148;8.234;2023-12-28T09:27:25;8.27;;;1.53;;
14903;SDS011;7543;53.148;8.234;2023-12-28T09:29:53;5.47;;;1.63;;
14903;SDS011;7543;53.148;8.234;2023-12-28T09:32:21;8.00;;;1.70;;
14903;SDS011;7543;53.148;8.234;2023-12-28T09:34:51;8.70;;;1.73;;
14903;SDS011;7543;53.148;8.234;2023-12-28T09:37:19;9.10;;;1.50;;
14903;SDS011;7543;53.148;8.234;2023-12-28T09:39:48;5.37;;;1.47;;
14903;SDS011;7543;53.148;8.234;2023-12-28T09:42:17;7.87;;;1.70;;
14903;SDS011;7543;53.148;8.234;2023-12-28T09:44:53;7.30;;;1.80;;
14903;SDS011;7543;53.148;8.234;2023-12-28T09:47:22;9.33;;;2.03;;
14903;SDS011;7543;53.148;8.234;2023-12-28T09:49:52;7.67;;;1.60;;
14903;SDS011;7543;53.148;8.234;2023-12-28T09:52:21;5.20;;;1.60;;
14903;SDS011;7543;53.148;8.234;2023-12-28T09:54:49;8.30;;;1.67;;
14903;SDS011;7543;53.148;8.234;2023-12-28T09:57:17;9.13;;;1.63;;
14903;SDS011;7543;53.148;8.234;2023-12-28T09:59:47;4.23;;;1.33;;
14903;SDS011;7543;53.148;8.234;2023-12-28T10:02:15;5.13;;;1.70;;
14903;SDS011;7543;53.148;8.234;2023-12-28T10:04:44;6.77;;;1.90;;
14903;SDS011;7543;53.148;8.234;2023-12-28T10:07:14;7.00;;;1.70;;
14903;SDS011;7543;53.148;8.234;2023-12-28T10:09:42;3.40;;;1.43;;
14903;SDS011;7543;53.148;8.234;2023-12-28T10:12:11;10.30;;;1.93;;
14903;SDS011;7543;53.148;8.234;2023-12-28T10:14:40;7.90;;;2.27;;
14903;SDS011;7543;53.148;8.234;2023-12-28T10:17:08;8.33;;;1.80;;
14903;SDS011;7543;53.148;8.234;2023-12-28T10:19:37;8.47;;;1.60;;
14903;SDS011;7543;53.148;8.234;2023-12-28T10:22:05;7.03;;;2.00;;
14903;SDS011;7543;53.148;8.234;2023-12-28T10:24:35;7.87;;;1.90;;
14903;SDS011;7543;53.148;8.234;2023-12-28T10:27:09;10.87;;;2.03;;
14903;SDS011;7543;53.148;8.234;2023-12-28T10:29:37;7.90;;;1.90;;
14903;SDS011;7543;53.148;8.234;2023-12-28T10:32:05;6.53;;;1.80;;
14903;SDS011;7543;53.148;8.234;2023-12-28T10:34:34;7.17;;;1.80;;
14903;SDS011;7543;53.148;8.234;2023-12-28T10:37:02;7.70;;;1.87;;
14903;SDS011;7543;53.148;8.234;2023-12-28T10:39:31;6.10;;;1.47;;
14903;SDS011;7543;53.148;8.234;2023-12-28T10:42:05;7.33;;;1.90;;
14903;SDS011;7543;53.148;8.234;2023-12-28T10:44:37;7.90;;;1.97;;
14903;SDS011;7543;53.148;8.234;2023-12-28T10:47:11;6.80;;;1.57;;
14903;SDS011;7543;53.148;8.234;2023-12-28T10:49:44;9.70;;;2.33;;
14903;SDS011;7543;53.148;8.234;2023-12-28T10:52:15;7.13;;;1.77;;
14903;SDS011;7543;53.148;8.234;2023-12-28T10:54:44;4.70;;;1.60;;
14903;SDS011;7543;53.148;8.234;2023-12-28T10:57:20;6.90;;;1.73;;
14903;SDS011;7543;53.148;8.234;2023-12-28T10:59:55;10.33;;;1.87;;
14903;SDS011;7543;53.148;8.234;2023-12-28T11:02:38;7.83;;;1.73;;
14903;SDS011;7543;53.148;8.234;2023-12-28T11:05:09;7.53;;;1.53;;
14903;SDS011;7543;53.148;8.234;2023-12-28T11:07:37;8.60;;;1.63;;
14903;SDS011;7543;53.148;8.234;2023-12-28T11:10:06;10.60;;;2.23;;
14903;SDS011;7543;53.148;8.234;2023-12-28T11:12:38;5.47;;;1.90;;
14903;SDS011;7543;53.148;8.234;2023-12-28T11:15:08;7.90;;;1.63;;
14903;SDS011;7543;53.148;8.234;2023-12-28T11:17:38;7.83;;;1.70;;
14903;SDS011;7543;53.148;8.234;2023-12-28T11:20:07;8.27;;;2.00;;
14903;SDS011;7543;53.148;8.234;2023-12-28T11:22:36;5.77;;;1.50;;
14903;SDS011;7543;53.148;8.234;2023-12-28T11:25:05;9.27;;;1.80;;
14903;SDS011;7543;53.148;8.234;2023-12-28T11:27:35;8.77;;;2.07;;
14903;SDS011;7543;53.148;8.234;2023-12-28T11:30:08;11.97;;;1.93;;
14903;SDS011;7543;53.148;8.234;2023-12-28T11:32:38;7.67;;;1.90;;
14903;SDS011;7543;53.148;8.234;2023-12-28T11:35:10;9.50;;;1.87;;
14903;SDS011;7543;53.148;8.234;2023-12-28T11:37:40;10.93;;;1.70;;
14903;SDS011;7543;53.148;8.234;2023-12-28T11:40:10;11.53;;;2.17;;
14903;SDS011;7543;53.148;8.234;2023-12-28T11:42:48;8.60;;;2.03;;
14903;SDS011;7543;53.148;8.234;2023-12-28T11:45:18;6.17;;;1.63;;
14903;SDS011;7543;53.148;8.234;2023-12-28T11:47:46;5.77;;;1.83;;
14903;SDS011;7543;53.148;8.234;2023-12-28T11:50:15;9.37;;;1.87;;
14903;SDS011;7543;53.148;8.234;2023-12-28T11:52:43;6.73;;;1.77;;
14903;SDS011;7543;53.148;8.234;2023-12-28T12:04:39;7.80;;;1.77;;
14903;SDS011;7543;53.148;8.234;2023-12-28T12:07:07;5.17;;;1.57;;
14903;SDS011;7543;53.148;8.234;2023-12-28T12:09:36;8.87;;;1.73;;
14903;SDS011;7543;53.148;8.234;2023-12-28T12:12:06;9.67;;;1.70;;
14903;SDS011;7543;53.148;8.234;2023-12-28T12:14:35;6.57;;;1.73;;
14903;SDS011;7543;53.148;8.234;2023-12-28T12:17:02;6.70;;;1.70;;
14903;SDS011;7543;53.148;8.234;2023-12-28T12:19:31;7.30;;;1.70;;
14903;SDS011;7543;53.148;8.234;2023-12-28T12:22:01;11.83;;;2.20;;
14903;SDS011;7543;53.148;8.234;2023-12-28T12:24:29;11.20;;;2.10;;
14903;SDS011;7543;53.148;8.234;2023-12-28T12:27:00;7.33;;;1.50;;
14903;SDS011;7543;53.148;8.234;2023-12-28T12:29:30;10.03;;;2.30;;
14903;SDS011;7543;53.148;8.234;2023-12-28T12:31:59;10.77;;;2.47;;
14903;SDS011;7543;53.148;8.234;2023-12-28T12:34:29;13.77;;;2.13;;
14903;SDS011;7543;53.148;8.234;2023-12-28T12:36:58;12.60;;;2.27;;
14903;SDS011;7543;53.148;8.234;2023-12-28T12:39:29;13.40;;;2.13;;
14903;SDS011;7543;53.148;8.234;2023-12-28T12:41:58;6.63;;;1.70;;
14903;SDS011;7543;53.148;8.234;2023-12-28T12:44:26;13.90;;;2.20;;
14903;SDS011;7543;53.148;8.234;2023-12-28T12:46:58;8.73;;;1.90;;
14903;SDS011;7543;53.148;8.234;2023-12-28T12:49:27;13.50;;;2.07;;
14903;SDS011;7543;53.148;8.234;2023-12-28T12:54:59;7.33;;;1.70;;
14903;SDS011;7543;53.148;8.234;2023-12-28T12:57:27;6.40;;;1.90;;
14903;SDS011;7543;53.148;8.234;2023-12-28T12:59:56;4.40;;;1.97;;
14903;SDS011;7543;53.148;8.234;2023-12-28T13:02:24;10.83;;;1.97;;
14903;SDS011;7543;53.148;8.234;2023-12-28T13:04:54;9.87;;;1.97;;
14903;SDS011;7543;53.148;8.234;2023-12-28T13:07:23;11.60;;;2.07;;
14903;SDS011;7543;53.148;8.234;2023-12-28T13:09:52;11.50;;;1.80;;
14903;SDS011;7543;53.148;8.234;2023-12-28T13:12:22;4.00;;;1.60;;
14903;SDS011;7543;53.148;8.234;2023-12-28T13:14:51;5.70;;;1.37;;
14903;SDS011;7543;53.148;8.234;2023-12-28T13:17:19;4.33;;;1.50;;
14903;SDS011;7543;53.148;8.234;2023-12-28T13:19:47;9.73;;;1.80;;
14903;SDS011;7543;53.148;8.234;2023-12-28T13:22:16;5.93;;;1.70;;
14903;SDS011;7543;53.148;8.234;2023-12-28T13:24:44;12.57;;;1.97;;
14903;SDS011;7543;53.148;8.234;2023-12-28T13:27:13;7.10;;;1.70;;
14903;SDS011;7543;53.148;8.234;2023-12-28T13:29:43;16.50;;;1.90;;
14903;SDS011;7543;53.148;8.234;2023-12-28T13:32:11;8.53;;;1.93;;
14903;SDS011;7543;53.148;8.234;2023-12-28T13:34:40;7.63;;;2.07;;
14903;SDS011;7543;53.148;8.234;2023-12-28T13:37:08;12.90;;;2.03;;
14903;SDS011;7543;53.148;8.234;2023-12-28T13:39:37;8.30;;;2.10;;
14903;SDS011;7543;53.148;8.234;2023-12-28T13:42:06;8.40;;;2.10;;
14903;SDS011;7543;53.148;8.234;2023-12-28T13:44:34;7.97;;;1.67;;
14903;SDS011;7543;53.148;8.234;2023-12-28T13:47:04;11.73;;;2.17;;
14903;SDS011;7543;53.148;8.234;2023-12-28T13:49:33;7.57;;;1.60;;
14903;SDS011;7543;53.148;8.234;2023-12-28T13:52:02;8.83;;;1.63;;
14903;SDS011;7543;53.148;8.234;2023-12-28T13:54:31;12.37;;;2.03;;
14903;SDS011;7543;53.148;8.234;2023-12-28T13:56:59;7.47;;;1.90;;
14903;SDS011;7543;53.148;8.234;2023-12-28T13:59:28;8.43;;;1.90;;
14903;SDS011;7543;53.148;8.234;2023-12-28T14:01:58;14.50;;;2.07;;
14903;SDS011;7543;53.148;8.234;2023-12-28T14:04:27;10.90;;;1.87;;
14903;SDS011;7543;53.148;8.234;2023-12-28T14:06:56;8.63;;;1.70;;
14903;SDS011;7543;53.148;8.234;2023-12-28T14:09:24;4.73;;;1.90;;
14903;SDS011;7543;53.148;8.234;2023-12-28T14:11:53;9.87;;;1.83;;
14903;SDS011;7543;53.148;8.234;2023-12-28T14:14:21;9.03;;;1.70;;
14903;SDS011;7543;53.148;8.234;2023-12-28T14:16:49;13.30;;;2.23;;
14903;SDS011;7543;53.148;8.234;2023-12-28T14:19:18;6.50;;;2.27;;
14903;SDS011;7543;53.148;8.234;2023-12-28T14:21:48;12.53;;;2.00;;
14903;SDS011;7543;53.148;8.234;2023-12-28T14:24:17;6.03;;;1.50;;
14903;SDS011;7543;53.148;8.234;2023-12-28T14:26:46;8.27;;;1.80;;
14903;SDS011;7543;53.148;8.234;2023-12-28T14:29:15;8.47;;;1.97;;
14903;SDS011;7543;53.148;8.234;2023-12-28T14:31:44;9.03;;;1.67;;
14903;SDS011;7543;53.148;8.234;2023-12-28T14:34:13;16.63;;;2.67;;
14903;SDS011;7543;53.148;8.234;2023-12-28T14:36:43;9.93;;;1.57;;
14903;SDS011;7543;53.148;8.234;2023-12-28T14:39:17;7.90;;;2.27;;
14903;SDS011;7543;53.148;8.234;2023-12-28T14:41:46;7.73;;;2.00;;
14903;SDS011;7543;53.148;8.234;2023-12-28T14:44:14;11.63;;;2.27;;
14903;SDS011;7543;53.148;8.234;2023-12-28T14:46:43;9.07;;;2.20;;
14903;SDS011;7543;53.148;8.234;2023-12-28T14:49:11;10.83;;;2.13;;
14903;SDS011;7543;53.148;8.234;2023-12-28T14:51:40;11.00;;;1.90;;
14903;SDS011;7543;53.148;8.234;2023-12-28T14:54:08;6.50;;;1.90;;
14903;SDS011;7543;53.148;8.234;2023-12-28T14:56:38;12.67;;;2.00;;
14903;SDS011;7543;53.148;8.234;2023-12-28T14:59:06;9.93;;;2.43;;
14903;SDS011;7543;53.148;8.234;2023-12-28T15:01:34;10.73;;;1.80;;
14903;SDS011;7543;53.148;8.234;2023-12-28T15:04:03;6.67;;;1.90;;
14903;SDS011;7543;53.148;8.234;2023-12-28T15:06:31;9.37;;;2.43;;
14903;SDS011;7543;53.148;8.234;2023-12-28T15:09:00;9.70;;;1.80;;
14903;SDS011;7543;53.148;8.234;2023-12-28T15:11:28;9.87;;;1.93;;
14903;SDS011;7543;53.148;8.234;2023-12-28T15:13:58;9.07;;;2.10;;
14903;SDS011;7543;53.148;8.234;2023-12-28T15:16:27;6.43;;;1.97;;
14903;SDS011;7543;53.148;8.234;2023-12-28T15:18:56;8.80;;;2.30;;
14903;SDS011;7543;53.148;8.234;2023-12-28T15:21:25;10.40;;;2.40;;
14903;SDS011;7543;53.148;8.234;2023-12-28T15:23:54;15.97;;;2.67;;
14903;SDS011;7543;53.148;8.234;2023-12-28T15:26:23;9.77;;;2.23;;